This is the latest recevied weather packets stored in our database for station/object WA6OOO. If no packets are shown the sender has not sent any weather packets the latest 10 day(s).
| Time | Temp. | Humidity | Pressure | Rain* | Wind** | Luminosity | Snow |
|---|---|---|---|---|---|---|---|
| 1777998338 | 15.56° C | 74% | 1017.1 hPa | 0 mm | - | 422 W/m² | - |
| 1777998035 | 15° C | 76% | 1017.2 hPa | 0 mm | - | 430 W/m² | - |
| 1777997732 | 15.56° C | 75% | 1017.1 hPa | 0 mm | - | 210 W/m² | - |
| 1777997429 | 15° C | 76% | 1017.1 hPa | 0 mm | - | 164 W/m² | - |
| 1777997127 | 15.56° C | 75% | 1017.1 hPa | 0 mm | - | 165 W/m² | - |
| 1777996824 | 16.11° C | 75% | 1017.3 hPa | 0 mm | - | 258 W/m² | - |
| 1777996520 | 16.11° C | 74% | 1017 hPa | 0 mm | - | 478 W/m² | - |
| 1777996216 | 15.56° C | 75% | 1016.9 hPa | 0 mm | - | 459 W/m² | - |
| 1777995914 | 15.56° C | 77% | 1017 hPa | 0 mm | - | 427 W/m² | - |
| 1777995609 | 14.44° C | 81% | 1017 hPa | 0 mm | - | 467 W/m² | - |
| 1777995308 | 14.44° C | 80% | 1017 hPa | 0 mm | - | 198 W/m² | - |
| 1777995003 | 13.89° C | 81% | 1016.9 hPa | 0 mm | - | 210 W/m² | - |
| 1777994701 | 13.89° C | 83% | 1017.1 hPa | 0 mm | - | 174 W/m² | - |
| 1777994395 | 13.33° C | 84% | 1016.9 hPa | 0 mm | - | 178 W/m² | - |
| 1777994091 | 13.89° C | 83% | 1016.9 hPa | 0 mm | - | 118 W/m² | - |
| 1777993789 | 13.89° C | 83% | 1017.1 hPa | 0 mm | - | 96 W/m² | - |
| 1777993485 | 13.89° C | 82% | 1017.1 hPa | 0 mm | - | 108 W/m² | - |
| 1777993185 | 13.89° C | 83% | 1017 hPa | 0 mm | - | 129 W/m² | - |
| 1777992883 | 13.33° C | 83% | 1017.2 hPa | 0 mm | - | 190 W/m² | - |
| 1777992581 | 13.33° C | 83% | 1016.9 hPa | 0 mm | - | 126 W/m² | - |
| 1777992279 | 13.33° C | 83% | 1017 hPa | 0 mm | - | 160 W/m² | - |
| 1777991976 | 13.33° C | 83% | 1016.9 hPa | 0 mm | - | 127 W/m² | - |
| 1777991673 | 12.78° C | 86% | 1016.9 hPa | 0 mm | - | 205 W/m² | - |
| 1777991370 | 12.22° C | 87% | 1016.9 hPa | 0 mm | - | 86 W/m² | - |
| 1777991068 | 12.22° C | 87% | 1017 hPa | 0 mm | - | 79 W/m² | - |
* Rain latest hour (hover to see other rain measurements)
** Current wind speed in m/s (hover to see current wind gust speed)